Auburn, Iowa
Current Conditions -  °F | °C
As of 4:35 AM on Thursday 23 Oct 2014 (Local Time) from KCIN Reporting Station
Haze Haze  
Wind Chill: 55°   Ceiling: 700
Heat Index: 55°   Visibility: 5mi
Dew Point: 55°   Wind: 9mph
Humidity: 100%   Direction: 210°SSW
Pressure: 30.02"   Gusts: NA
Location:  42.25°N, 94.88°W
Report Text: KCIN 230935Z AUTO 21008KT 5SM BR BKN007 OVC016 13/13 A3002 RMK AO2
Loading
Personal Weather Stations






























Interactive Weather Map New forecast layout! Learn more

10-Day Weather Forecast

Advertisements
Track Severe Weather on mobile